Airfield :
LOGIN :

Register | Disclaimer

   EN    FR    IT 

 










Legend :    VFR   Marginal VFR   IFR   Intensive IFR   Very Intensive IFR
Visi :
Ceiling :
>= 8 km
>= 3000ft
5 to 8 km
1000 to 3000 ft
1500m to 5 km
500 to 1000 ft
800 to 1500m
200 to 500 ft
< 800m
< 200 ft
Symbols :   Thunderstorms  Fog  Heavy snow  Heavy precipitations  Wind > 20 kt
SIGMETs :     Misc.  Thunderstorms  Icing  Turbulence  Mountain Waves  Volcanic Ashes






- Airport Elevation : -13 ft
- IATA code : LEY


EHLE - Lelystad

CURRENT METAR :
  • 241255Z AUTO 20009KT 5000 BKN007 OVC019 04/02 Q1022 BECMG SCT008

EXPIRED METARs :
  • 241225Z AUTO 21007KT 5000 BKN007 OVC008 04/02 Q1023 BECMG SCT008
  • 241155Z AUTO 20007KT 5000 BR OVC020 04/02 Q1023 TEMPO BKN006
  • 241125Z AUTO 19006KT 4700 BR OVC020 03/02 Q1023 BECMG 6000 NSW TEMPO BKN006
  • 241055Z AUTO 20007KT 4300 BR BKN006 OVC021 03/02 Q1023 TEMPO BKN006
  • 241025Z AUTO 18009KT 140V210 3500 BR OVC022 03/02 Q1023 NOSIG

TAF TAF EHLE
Valid from the 24 at 12:00 until the 25 at 18:00 UTC


241110Z 2412/2518 19007KT 4500 BR FEW008 BKN020
BECMG 2412/2415 7000 NSW
PROB30
TEMPO 2412/2508 4500 -DZ BR BKN008
BECMG 2418/2421 4500 BR
BECMG 2509/2512 8000 NSW



MET'MAP, your aeronautical weather chart ! - Copyright ORBIFLY December 2007 - Disclaimer

ORBIFLY MET'MAP TEAM :

Programming & Development : Alexandra Zaïnal
Concept & original design : Baudouin d'Aumeries
Assistance for programming : Marc-Olivier Méhu
Technical & hardware support : Manuel Goepfert

Contact : metmap@orbifly.com




SOURCES & CREDITS :

   NOAA